createdAt,value
2018-05-24T00:01:29.544Z,14.70
2018-05-24T00:04:04.132Z,14.70
2018-05-24T00:06:39.874Z,14.80
2018-05-24T00:09:07.961Z,14.70
2018-05-24T00:11:44.737Z,14.70
2018-05-24T00:14:18.614Z,14.70
2018-05-24T00:17:07.312Z,14.70
2018-05-24T00:19:36.362Z,14.70
2018-05-24T00:22:05.198Z,14.60
2018-05-24T00:24:34.288Z,14.60
2018-05-24T00:27:03.293Z,14.60
2018-05-24T00:29:31.377Z,14.60
2018-05-24T00:32:00.265Z,14.50
2018-05-24T00:34:28.351Z,14.60
2018-05-24T00:37:01.029Z,14.50
2018-05-24T00:39:29.888Z,14.50
2018-05-24T00:41:58.945Z,14.50
2018-05-24T00:44:30.509Z,14.50
2018-05-24T00:46:58.605Z,14.40
2018-05-24T00:49:26.688Z,14.40
2018-05-24T00:51:55.673Z,14.40
2018-05-24T00:54:24.561Z,14.30
2018-05-24T00:57:04.102Z,14.30
2018-05-24T00:59:33.144Z,14.30
2018-05-24T01:02:02.963Z,14.20
2018-05-24T01:04:35.957Z,14.10
2018-05-24T01:07:05.813Z,14.20
2018-05-24T01:09:34.306Z,14.20
2018-05-24T01:12:05.571Z,14.10
2018-05-24T01:14:33.656Z,14.00
2018-05-24T01:17:01.769Z,14.10
2018-05-24T01:19:29.844Z,14.00
2018-05-24T01:22:02.604Z,14.00
2018-05-24T01:24:30.700Z,14.00
2018-05-24T01:27:04.897Z,14.00
2018-05-24T01:29:37.112Z,14.00
2018-05-24T01:32:05.241Z,13.90
2018-05-24T01:34:38.776Z,13.90
2018-05-24T01:37:23.335Z,13.90
2018-05-24T01:39:57.964Z,13.80
2018-05-24T01:42:28.037Z,13.80
2018-05-24T01:44:58.039Z,13.80
2018-05-24T01:47:27.039Z,13.80
2018-05-24T01:49:55.894Z,13.70
2018-05-24T01:52:23.972Z,13.70
2018-05-24T01:54:52.068Z,13.80
2018-05-24T01:57:22.159Z,13.70
2018-05-24T02:00:04.737Z,13.60
2018-05-24T02:02:34.306Z,13.60
2018-05-24T02:05:02.410Z,13.60
2018-05-24T02:07:31.378Z,13.70
2018-05-24T02:09:59.482Z,13.60
2018-05-24T02:12:27.573Z,13.60
2018-05-24T02:14:56.603Z,13.60
2018-05-24T02:17:36.621Z,13.60
2018-05-24T02:20:05.624Z,13.50
2018-05-24T02:22:34.475Z,13.40
2018-05-24T02:25:03.530Z,13.40
2018-05-24T02:27:37.972Z,13.40
2018-05-24T02:30:08.019Z,13.40
2018-05-24T02:32:36.125Z,13.40
2018-05-24T02:35:04.205Z,13.40
2018-05-24T02:37:34.189Z,13.40
2018-05-24T02:40:03.201Z,13.40
2018-05-24T02:42:31.308Z,13.30
2018-05-24T02:45:03.473Z,13.30
2018-05-24T02:47:31.565Z,13.30
2018-05-24T02:50:10.081Z,13.20
2018-05-24T02:52:38.186Z,13.20
2018-05-24T02:55:06.273Z,13.20
2018-05-24T02:57:35.381Z,13.20
2018-05-24T03:00:08.473Z,13.20
2018-05-24T03:02:37.261Z,13.20
2018-05-24T03:05:07.285Z,13.20
2018-05-24T03:07:40.802Z,13.20
2018-05-24T03:13:14.112Z,13.20
2018-05-24T03:16:05.132Z,13.10
2018-05-24T03:18:33.232Z,13.20
2018-05-24T03:21:06.869Z,13.20
2018-05-24T03:23:39.859Z,13.10
2018-05-24T03:26:07.954Z,13.20
2018-05-24T03:28:36.932Z,13.10
2018-05-24T03:31:08.719Z,13.50
2018-05-24T03:33:36.820Z,13.40
2018-05-24T03:36:10.226Z,13.70
2018-05-24T03:38:39.207Z,13.90
2018-05-24T03:41:13.762Z,14.30
2018-05-24T03:43:42.986Z,14.30
2018-05-24T03:46:16.196Z,14.20
2018-05-24T03:48:45.266Z,14.00
2018-05-24T03:51:17.867Z,13.80
2018-05-24T03:53:45.963Z,13.80
2018-05-24T03:56:14.067Z,13.70
2018-05-24T03:58:45.481Z,13.70
2018-05-24T04:01:26.130Z,14.60
2018-05-24T04:06:59.568Z,15.60
2018-05-24T04:09:27.673Z,15.60
2018-05-24T04:11:55.793Z,16.10
2018-05-24T04:14:27.786Z,16.40
2018-05-24T04:16:56.879Z,16.90
2018-05-24T04:19:24.984Z,17.20
2018-05-24T04:21:53.077Z,17.80
2018-05-24T04:24:21.161Z,18.30
2018-05-24T04:26:59.865Z,18.90
2018-05-24T04:29:28.731Z,20.40
2018-05-24T04:31:58.595Z,21.00
2018-05-24T04:34:28.667Z,21.00
2018-05-24T04:36:56.798Z,21.70
2018-05-24T04:39:29.118Z,22.20
2018-05-24T04:41:57.238Z,22.20
2018-05-24T04:44:25.308Z,21.50
2018-05-24T04:46:57.304Z,21.60
2018-05-24T04:49:30.725Z,21.20
2018-05-24T04:52:01.499Z,21.40
2018-05-24T04:54:29.601Z,21.40
2018-05-24T04:56:57.719Z,21.80
2018-05-24T04:59:25.810Z,22.10
2018-05-24T05:02:06.686Z,22.50
2018-05-24T05:04:35.706Z,22.50
2018-05-24T05:07:03.901Z,21.10
2018-05-24T05:09:32.771Z,17.90
2018-05-24T05:12:02.905Z,17.90
2018-05-24T05:14:30.996Z,17.10
2018-05-24T05:16:59.104Z,16.70
2018-05-24T05:19:27.226Z,16.50
2018-05-24T05:21:57.638Z,16.30
2018-05-24T05:24:25.737Z,16.00
2018-05-24T05:26:54.740Z,15.90
2018-05-24T05:29:23.514Z,15.80
2018-05-24T05:31:55.694Z,15.70
2018-05-24T05:34:23.806Z,15.70
2018-05-24T05:36:53.826Z,15.70
2018-05-24T05:39:25.031Z,15.70
2018-05-24T05:41:53.137Z,15.70
2018-05-24T05:44:22.068Z,15.70
2018-05-24T05:46:50.180Z,15.70
2018-05-24T05:49:18.250Z,15.80
2018-05-24T05:51:49.634Z,15.80
2018-05-24T05:54:17.736Z,15.90
2018-05-24T05:56:55.272Z,16.00
2018-05-24T05:59:24.280Z,16.00
2018-05-24T06:01:53.298Z,16.10
2018-05-24T06:04:22.340Z,16.10
2018-05-24T06:06:50.477Z,16.20
2018-05-24T06:09:19.330Z,16.40
2018-05-24T06:11:48.443Z,16.40
2018-05-24T06:14:20.829Z,16.40
2018-05-24T06:16:52.523Z,16.40
2018-05-24T06:19:21.450Z,16.60
2018-05-24T06:21:50.441Z,16.60
2018-05-24T06:24:19.517Z,16.70
2018-05-24T06:26:47.625Z,16.70
2018-05-24T06:29:18.437Z,16.90
2018-05-24T06:31:46.554Z,16.80
2018-05-24T06:34:15.596Z,16.90
2018-05-24T06:36:43.689Z,17.00
2018-05-24T06:39:11.850Z,17.10
2018-05-24T06:41:40.719Z,17.20
2018-05-24T06:44:08.846Z,17.30
2018-05-24T06:46:38.619Z,17.40
2018-05-24T06:49:10.292Z,17.40
2018-05-24T06:51:42.775Z,17.50
2018-05-24T06:54:10.941Z,17.60
2018-05-24T06:56:39.132Z,17.70
2018-05-24T06:59:10.980Z,17.80
2018-05-24T07:01:39.998Z,17.80
2018-05-24T07:04:08.141Z,17.80
2018-05-24T07:06:37.053Z,17.90
2018-05-24T07:09:06.985Z,17.90
2018-05-24T07:11:35.126Z,18.00
2018-05-24T07:14:04.216Z,18.10
2018-05-24T07:16:32.330Z,18.20
2018-05-24T07:19:00.451Z,18.20
2018-05-24T07:21:28.592Z,18.30
2018-05-24T07:23:57.699Z,18.40
2018-05-24T07:26:25.797Z,18.50
2018-05-24T07:28:53.932Z,18.60
2018-05-24T07:31:24.012Z,18.70
2018-05-24T07:33:52.113Z,18.80
2018-05-24T07:36:22.331Z,18.90
2018-05-24T07:38:50.422Z,19.00
2018-05-24T07:41:20.287Z,19.20
2018-05-24T07:43:48.400Z,19.10
2018-05-24T07:46:16.489Z,19.30
2018-05-24T07:48:45.246Z,19.40
2018-05-24T07:51:13.347Z,19.50
2018-05-24T07:53:41.433Z,19.50
2018-05-24T07:56:10.524Z,19.60
2018-05-24T07:58:38.617Z,19.70
2018-05-24T08:01:07.728Z,19.80
2018-05-24T08:03:36.390Z,20.00
2018-05-24T08:06:04.507Z,20.00
2018-05-24T08:08:32.674Z,20.10
2018-05-24T08:11:00.732Z,20.10
2018-05-24T08:13:33.901Z,20.20
2018-05-24T08:16:02.053Z,20.30
2018-05-24T08:18:30.183Z,20.30
2018-05-24T08:20:59.233Z,20.30
2018-05-24T08:23:28.396Z,20.50
2018-05-24T08:25:58.532Z,20.50
2018-05-24T08:28:26.624Z,20.50
2018-05-24T08:30:57.885Z,20.60
2018-05-24T08:33:27.956Z,20.70
2018-05-24T08:35:59.634Z,20.70
2018-05-24T08:38:28.563Z,20.70
2018-05-24T08:40:58.790Z,20.70
2018-05-24T08:43:27.628Z,20.90
2018-05-24T08:45:55.724Z,20.80
2018-05-24T08:48:27.751Z,21.00
2018-05-24T08:51:02.210Z,21.00
2018-05-24T08:53:31.282Z,21.10
2018-05-24T08:55:59.423Z,21.10
2018-05-24T08:58:29.318Z,21.10
2018-05-24T09:00:59.501Z,21.10
2018-05-24T09:03:27.602Z,21.20
2018-05-24T09:05:56.717Z,21.20
2018-05-24T09:08:24.808Z,21.20
2018-05-24T09:10:56.662Z,21.30
2018-05-24T09:13:29.567Z,21.20
2018-05-24T09:15:57.761Z,21.20
2018-05-24T09:18:29.117Z,21.20
2018-05-24T09:20:57.206Z,21.30
2018-05-24T09:23:30.727Z,21.30
2018-05-24T09:25:59.881Z,21.40
2018-05-24T09:28:31.313Z,21.50
2018-05-24T09:30:59.388Z,21.50
2018-05-24T09:33:27.601Z,21.60
2018-05-24T09:35:58.744Z,21.70
2018-05-24T09:38:36.206Z,21.80
2018-05-24T09:41:04.335Z,21.80
2018-05-24T09:43:33.399Z,21.90
2018-05-24T09:46:01.567Z,21.90
2018-05-24T09:48:31.628Z,22.00
2018-05-24T09:50:59.736Z,22.10
2018-05-24T09:53:28.829Z,22.10
2018-05-24T09:55:57.181Z,22.20
2018-05-24T09:58:36.247Z,22.20
2018-05-24T10:01:05.147Z,22.20
2018-05-24T10:03:33.339Z,22.20
2018-05-24T10:06:01.436Z,22.30
2018-05-24T10:08:29.589Z,22.30
2018-05-24T10:10:57.851Z,22.40
2018-05-24T10:13:26.673Z,22.40
2018-05-24T10:15:54.813Z,22.40
2018-05-24T10:18:23.879Z,22.40
2018-05-24T10:20:51.994Z,22.50
2018-05-24T10:23:20.292Z,22.60
2018-05-24T10:25:48.396Z,22.50
2018-05-24T10:28:17.288Z,22.60
2018-05-24T10:30:45.456Z,22.60
2018-05-24T10:33:15.679Z,22.70
2018-05-24T10:35:43.805Z,22.70
2018-05-24T10:38:15.052Z,22.80
2018-05-24T10:40:43.264Z,22.70
2018-05-24T10:43:11.386Z,22.70
2018-05-24T10:45:42.714Z,22.80
2018-05-24T10:48:10.946Z,22.70
2018-05-24T10:50:39.103Z,22.80
2018-05-24T10:53:08.110Z,22.80
2018-05-24T10:55:37.240Z,22.80
2018-05-24T10:58:06.313Z,22.80
2018-05-24T11:00:34.429Z,22.90
2018-05-24T11:03:02.554Z,22.90
2018-05-24T11:05:30.631Z,23.00
2018-05-24T11:07:58.763Z,23.10
2018-05-24T11:10:27.759Z,23.20
2018-05-24T11:12:57.061Z,23.20
2018-05-24T11:15:26.140Z,23.30
2018-05-24T11:17:54.216Z,23.30
2018-05-24T11:20:25.967Z,23.30
2018-05-24T11:22:54.064Z,23.30
2018-05-24T11:25:24.176Z,23.20
2018-05-24T11:27:52.248Z,23.30
2018-05-24T11:30:20.462Z,23.30
2018-05-24T11:32:48.541Z,23.30
2018-05-24T11:35:20.582Z,23.50
2018-05-24T11:37:49.494Z,23.50
2018-05-24T11:40:18.599Z,23.50
2018-05-24T11:42:46.691Z,23.60
2018-05-24T11:45:14.835Z,23.70
2018-05-24T11:47:48.962Z,23.60
2018-05-24T11:50:17.088Z,23.60
2018-05-24T11:52:45.172Z,23.50
2018-05-24T11:55:15.198Z,23.50
2018-05-24T11:57:43.322Z,23.60
2018-05-24T12:00:11.663Z,23.60
2018-05-24T12:02:39.771Z,23.60
2018-05-24T12:05:07.993Z,23.60
2018-05-24T12:07:37.864Z,23.60
2018-05-24T12:10:08.018Z,23.60
2018-05-24T12:12:36.863Z,23.90
2018-05-24T12:15:05.712Z,23.90
2018-05-24T12:17:33.918Z,23.90
2018-05-24T12:20:02.037Z,23.80
2018-05-24T12:22:30.907Z,23.90
2018-05-24T12:24:59.050Z,23.90
2018-05-24T12:27:29.075Z,24.00
2018-05-24T12:29:57.747Z,24.10
2018-05-24T12:32:25.834Z,24.10
2018-05-24T12:34:55.885Z,24.00
2018-05-24T12:37:24.885Z,24.00
2018-05-24T12:39:53.866Z,24.00
2018-05-24T12:42:22.753Z,24.00
2018-05-24T12:44:50.868Z,24.00
2018-05-24T12:47:19.006Z,23.90
2018-05-24T12:49:47.093Z,23.80
2018-05-24T12:52:20.522Z,23.70
2018-05-24T12:54:50.368Z,23.80
2018-05-24T12:57:20.348Z,23.80
2018-05-24T12:59:49.959Z,23.80
2018-05-24T13:02:19.084Z,23.80
2018-05-24T13:04:48.225Z,23.90
2018-05-24T13:07:20.829Z,23.90
2018-05-24T13:09:49.989Z,23.90
2018-05-24T13:12:18.961Z,23.90
2018-05-24T13:14:48.822Z,24.00
2018-05-24T13:17:26.577Z,24.10
2018-05-24T13:19:55.725Z,24.20
2018-05-24T13:22:25.849Z,24.20
2018-05-24T13:24:53.940Z,24.40
2018-05-24T13:27:22.031Z,24.60
2018-05-24T13:29:50.272Z,24.60
2018-05-24T13:32:18.401Z,24.70
2018-05-24T13:34:46.536Z,24.80
2018-05-24T13:37:15.580Z,24.80
2018-05-24T13:39:43.678Z,24.90
2018-05-24T13:42:11.780Z,25.20
2018-05-24T13:44:39.897Z,25.30
2018-05-24T13:47:13.040Z,25.30
2018-05-24T13:49:43.132Z,25.20
2018-05-24T13:52:11.257Z,25.30
2018-05-24T13:54:39.375Z,25.40
2018-05-24T13:57:07.475Z,25.60
2018-05-24T13:59:36.524Z,25.50
2018-05-24T14:02:04.640Z,25.60
2018-05-24T14:04:32.762Z,25.50
2018-05-24T14:07:00.881Z,25.50
2018-05-24T14:09:31.785Z,25.40
2018-05-24T14:12:01.651Z,25.50
2018-05-24T14:14:32.932Z,25.40
2018-05-24T14:17:01.078Z,25.40
2018-05-24T14:19:30.042Z,25.40
2018-05-24T14:22:02.170Z,25.60
2018-05-24T14:24:37.115Z,25.50
2018-05-24T14:27:06.236Z,25.40
2018-05-24T14:29:35.314Z,25.30
2018-05-24T14:32:03.883Z,25.40
2018-05-24T14:34:32.012Z,25.50
2018-05-24T14:37:00.107Z,25.50
2018-05-24T14:39:39.675Z,25.50
2018-05-24T14:42:07.827Z,25.60
2018-05-24T14:44:35.936Z,25.40
2018-05-24T14:47:07.061Z,25.40
2018-05-24T14:49:37.103Z,25.30
2018-05-24T14:52:07.147Z,25.20
2018-05-24T14:54:41.936Z,25.00
2018-05-24T14:57:10.812Z,25.20
2018-05-24T14:59:38.906Z,25.20
2018-05-24T15:02:07.077Z,25.20
2018-05-24T15:04:35.191Z,25.20
2018-05-24T15:07:04.086Z,24.90
2018-05-24T15:09:33.559Z,24.90
2018-05-24T15:12:01.965Z,24.90
2018-05-24T15:14:32.009Z,24.90
2018-05-24T15:17:01.111Z,24.90
2018-05-24T15:19:30.205Z,24.90
2018-05-24T15:21:58.320Z,24.80
2018-05-24T15:24:27.361Z,24.70
2018-05-24T15:26:55.465Z,24.80
2018-05-24T15:29:23.560Z,24.80
2018-05-24T15:31:51.888Z,24.70
2018-05-24T15:34:22.026Z,24.80
2018-05-24T15:36:50.908Z,24.90
2018-05-24T15:39:20.053Z,24.90
2018-05-24T15:41:50.164Z,25.00
2018-05-24T15:44:19.019Z,25.00
2018-05-24T15:46:47.145Z,25.00
2018-05-24T15:49:16.204Z,25.00
2018-05-24T15:51:45.442Z,24.90
2018-05-24T15:54:14.159Z,24.90
2018-05-24T15:56:42.248Z,25.10
2018-05-24T15:59:10.442Z,25.10
2018-05-24T16:01:40.521Z,25.10
2018-05-24T16:04:10.615Z,25.20
2018-05-24T16:06:38.761Z,25.30
2018-05-24T16:09:10.322Z,25.20
2018-05-24T16:11:40.253Z,25.40
2018-05-24T16:14:08.441Z,25.40
2018-05-24T16:16:37.622Z,25.50
2018-05-24T16:19:05.751Z,25.50
2018-05-24T16:21:33.976Z,25.50
2018-05-24T16:24:04.042Z,25.50
2018-05-24T16:26:32.123Z,25.60
2018-05-24T16:29:03.274Z,25.60
2018-05-24T16:31:37.200Z,25.50
2018-05-24T16:34:05.348Z,25.30
2018-05-24T16:36:41.429Z,25.20
2018-05-24T16:39:09.708Z,25.20
2018-05-24T16:41:42.290Z,25.10
2018-05-24T16:44:14.011Z,25.00
2018-05-24T16:46:42.169Z,24.90
2018-05-24T16:49:11.312Z,25.10
2018-05-24T16:51:40.426Z,25.20
2018-05-24T16:54:08.538Z,25.10
2018-05-24T16:56:37.398Z,25.30
2018-05-24T16:59:05.503Z,25.20
2018-05-24T17:01:34.405Z,25.40
2018-05-24T17:04:05.617Z,25.40
2018-05-24T17:06:33.778Z,25.50
2018-05-24T17:09:02.856Z,25.40
2018-05-24T17:11:35.792Z,25.40
2018-05-24T17:14:08.489Z,25.30
2018-05-24T17:16:38.738Z,25.30
2018-05-24T17:19:06.891Z,25.40
2018-05-24T17:21:39.551Z,25.40
2018-05-24T17:24:09.956Z,25.50
2018-05-24T17:26:39.086Z,25.60
2018-05-24T17:29:08.174Z,25.50
2018-05-24T17:31:40.368Z,25.20
2018-05-24T17:34:08.490Z,25.00
2018-05-24T17:36:36.617Z,25.00
2018-05-24T17:39:05.733Z,25.20
2018-05-24T17:41:34.884Z,25.30
2018-05-24T17:44:03.754Z,24.90
2018-05-24T17:46:38.721Z,24.90
2018-05-24T17:49:07.597Z,25.10
2018-05-24T17:51:35.666Z,25.00
2018-05-24T17:54:04.772Z,25.20
2018-05-24T17:56:34.811Z,25.30
2018-05-24T17:59:02.921Z,25.20
2018-05-24T18:01:31.953Z,25.20
2018-05-24T18:04:00.149Z,25.00
2018-05-24T18:06:39.047Z,24.70
2018-05-24T18:09:08.159Z,24.50
2018-05-24T18:11:36.259Z,24.40
2018-05-24T18:14:05.128Z,24.40
2018-05-24T18:16:33.225Z,24.40
2018-05-24T18:19:01.333Z,24.10
2018-05-24T18:21:32.156Z,23.60
2018-05-24T18:24:00.257Z,23.60
2018-05-24T18:26:28.356Z,23.50
2018-05-24T18:28:57.235Z,23.50
2018-05-24T18:31:27.034Z,23.50
2018-05-24T18:33:55.205Z,23.40
2018-05-24T18:36:23.300Z,23.30
2018-05-24T18:38:51.400Z,23.20
2018-05-24T18:41:19.515Z,23.00
2018-05-24T18:43:49.409Z,22.80
2018-05-24T18:46:18.574Z,22.80
2018-05-24T18:48:48.599Z,22.60
2018-05-24T18:51:16.716Z,22.30
2018-05-24T18:53:45.793Z,22.10
2018-05-24T18:56:13.909Z,21.90
2018-05-24T18:58:42.019Z,21.70
2018-05-24T19:01:10.128Z,21.50
2018-05-24T19:03:38.980Z,21.30
2018-05-24T19:06:07.070Z,21.30
2018-05-24T19:08:36.119Z,21.20
2018-05-24T19:11:04.992Z,21.00
2018-05-24T19:13:33.071Z,21.00
2018-05-24T19:16:01.189Z,20.90
2018-05-24T19:18:30.045Z,20.70
2018-05-24T19:20:58.149Z,20.70
2018-05-24T19:23:26.248Z,20.70
2018-05-24T19:25:56.098Z,20.50
2018-05-24T19:28:26.123Z,20.50
2018-05-24T19:30:54.220Z,20.50
2018-05-24T19:33:22.312Z,20.40
2018-05-24T19:35:52.414Z,20.40
2018-05-24T19:38:21.266Z,20.30
2018-05-24T19:40:49.359Z,20.20
2018-05-24T19:43:17.472Z,20.20
2018-05-24T19:45:50.679Z,20.10
2018-05-24T19:48:20.657Z,20.00
2018-05-24T19:50:48.755Z,20.00
2018-05-24T19:53:16.880Z,19.90
2018-05-24T19:55:45.776Z,19.70
2018-05-24T19:58:19.932Z,19.70
2018-05-24T20:00:50.081Z,19.70
2018-05-24T20:03:18.175Z,19.70
2018-05-24T20:05:46.278Z,19.60
2018-05-24T20:08:18.421Z,19.60
2018-05-24T20:10:47.523Z,19.50
2018-05-24T20:13:17.955Z,19.50
2018-05-24T20:15:50.406Z,19.40
2018-05-24T20:18:18.485Z,19.40
2018-05-24T20:20:46.566Z,19.40
2018-05-24T20:23:14.699Z,19.30
2018-05-24T20:25:42.794Z,19.20
2018-05-24T20:28:10.930Z,19.20
2018-05-24T20:30:41.701Z,19.10
2018-05-24T20:33:13.212Z,19.10
2018-05-24T20:35:41.308Z,19.00
2018-05-24T20:38:15.498Z,19.00
2018-05-24T20:40:43.631Z,18.90
2018-05-24T20:43:11.708Z,18.80
2018-05-24T20:45:39.809Z,18.80
2018-05-24T20:48:09.494Z,18.80
2018-05-24T20:50:37.621Z,18.80
2018-05-24T20:53:11.753Z,18.70
2018-05-24T20:55:42.828Z,18.70
2018-05-24T20:58:14.674Z,18.60
2018-05-24T21:00:43.600Z,18.50
2018-05-24T21:03:11.677Z,18.50
2018-05-24T21:05:39.990Z,18.50
2018-05-24T21:08:10.013Z,18.40
2018-05-24T21:10:40.089Z,18.30
2018-05-24T21:13:13.939Z,18.30
2018-05-24T21:15:43.364Z,18.10
2018-05-24T21:18:11.514Z,18.10
2018-05-24T21:20:40.376Z,18.00
2018-05-24T21:23:09.436Z,18.00
2018-05-24T21:25:37.565Z,18.00
2018-05-24T21:28:10.317Z,18.00
2018-05-24T21:30:41.529Z,17.90
2018-05-24T21:33:11.276Z,17.90
2018-05-24T21:35:39.514Z,17.90
2018-05-24T21:38:11.938Z,17.90
2018-05-24T21:40:41.027Z,17.80
2018-05-24T21:43:09.891Z,17.80
2018-05-24T21:45:40.315Z,17.80
2018-05-24T21:48:09.218Z,17.70
2018-05-24T21:50:39.792Z,17.70
2018-05-24T21:53:08.157Z,17.70
2018-05-24T21:55:40.696Z,17.60
2018-05-24T21:58:24.458Z,17.60
2018-05-24T22:01:07.498Z,17.50
2018-05-24T22:03:47.373Z,17.50
2018-05-24T22:06:20.663Z,17.40
2018-05-24T22:08:59.265Z,17.40
2018-05-24T22:14:40.081Z,17.30
2018-05-24T22:17:08.938Z,17.30
2018-05-24T22:19:36.998Z,17.20
2018-05-24T22:22:10.270Z,17.20
2018-05-24T22:24:42.349Z,17.10
2018-05-24T22:27:10.474Z,17.10
2018-05-24T22:29:41.884Z,17.10
2018-05-24T22:32:09.978Z,17.10
2018-05-24T22:34:38.061Z,17.00
2018-05-24T22:37:06.144Z,16.90
2018-05-24T22:39:35.008Z,16.90
2018-05-24T22:42:05.095Z,16.90
2018-05-24T22:44:33.202Z,16.80
2018-05-24T22:47:01.639Z,16.80
2018-05-24T22:49:29.763Z,16.80
2018-05-24T22:51:57.846Z,16.70
2018-05-24T22:54:25.935Z,16.60
2018-05-24T22:56:54.009Z,16.60
2018-05-24T22:59:23.078Z,16.60
2018-05-24T23:01:56.790Z,16.60
2018-05-24T23:04:25.641Z,16.50
2018-05-24T23:06:53.745Z,16.50
2018-05-24T23:09:26.166Z,16.50
2018-05-24T23:11:59.168Z,16.40
2018-05-24T23:14:27.251Z,16.40
2018-05-24T23:16:57.296Z,16.40
2018-05-24T23:19:25.397Z,16.30
2018-05-24T23:21:54.378Z,16.30
2018-05-24T23:24:22.518Z,16.20
2018-05-24T23:26:52.598Z,16.20
2018-05-24T23:29:20.690Z,16.20
2018-05-24T23:31:48.777Z,16.10
2018-05-24T23:34:17.770Z,16.10
2018-05-24T23:36:49.530Z,16.00
2018-05-24T23:39:17.625Z,15.90
2018-05-24T23:41:45.715Z,15.90
2018-05-24T23:44:13.844Z,15.90
2018-05-24T23:46:41.951Z,15.80
2018-05-24T23:49:10.824Z,15.70
2018-05-24T23:51:44.682Z,15.70
2018-05-24T23:54:14.867Z,15.70
2018-05-24T23:56:53.938Z,15.60
2018-05-24T23:59:22.956Z,15.60
